EGPN/DND METAR and TAF weather

Enter ICAO airport designator
Station Type Date Time Source
EGPN METAR 2019/05/25 08:50 UTC NOAA

EGPN 250850Z 27004KT 9999 FEW016 12/08 Q1016


Station Type Date Time Source
EGPN Decoded METAR 2019/05/25 08:50 UTC NOAA

Dundee / Riverside, United Kingdom (EGPN) 56-27N 003-01W
May 25, 2019 - 04:50 AM EDT / 2019.05.25 0850 UTC
Wind: from the W (270 degrees) at 5 MPH (4 KT):0
Visibility: greater than 7 mile(s):0
Sky conditions: mostly clear
Temperature: 53 F (12 C)
Dew Point: 46 F (8 C)
Relative Humidity: 76%
Pressure (altimeter): 30.00 in. Hg (1016 hPa)
ob: EGPN 250850Z 27004KT 9999 FEW016 12/08 Q1016
cycle: 9

Station Type Date Time Source
EGPN TAF 2019/01/15 18:56 UTC NOAA

TAF EGPN 151750Z 1518/1621 CNL

Example: see airport list